Time;durP1;ratioP1;P1;durP2;ratioP2;P2;SDS_P1;SDS_P2;PMS_P1;PMS_P2;Temp;Humidity;BMP_temperature;BMP_pressure;BME280_temperature;BME280_humidity;BME280_pressure;Samples;Min_cycle;Max_cycle;Signal;HPM_P1;HPM_P2
2021/12/04 00:01:11;;;;;;;40.33;18.27;;;;;;;1.41;100.00;99515.94;5037305;28;20032;-76
2021/12/04 00:03:41;;;;;;;44.67;19.88;;;;;;;2.22;100.00;99642.13;5038674;28;20036;-74
2021/12/04 00:06:22;;;;;;;46.60;19.30;;;;;;;2.38;100.00;99625.41;5022491;28;20045;-75
2021/12/04 00:08:48;;;;;;;45.70;18.80;;;;;;;1.03;100.00;99433.59;5021904;28;20045;-75
2021/12/04 00:11:14;;;;;;;52.85;20.67;;;;;;;1.01;100.00;99422.47;5020754;28;20037;-75
2021/12/04 00:13:40;;;;;;;47.00;18.92;;;;;;;1.46;100.00;99489.59;5022296;28;20055;-74
2021/12/04 00:16:06;;;;;;;43.85;18.75;;;;;;;1.94;100.00;99559.94;5021401;28;20418;-74
2021/12/04 00:18:33;;;;;;;52.30;20.05;;;;;;;2.19;100.00;99611.09;5038002;28;20022;-74
2021/12/04 00:20:58;;;;;;;47.95;20.48;;;;;;;2.15;100.00;99606.22;5020385;28;20060;-74
2021/12/04 00:23:26;;;;;;;54.50;20.42;;;;;;;2.12;100.00;99619.47;5036897;28;20025;-74
2021/12/04 00:25:52;;;;;;;50.30;21.25;;;;;;;2.25;100.00;99613.28;5037975;28;20026;-74
2021/12/04 00:28:17;;;;;;;59.30;23.02;;;;;;;2.15;100.00;99616.63;5037580;28;20033;-74
2021/12/04 00:30:44;;;;;;;58.17;21.02;;;;;;;2.20;100.00;99593.69;5004490;28;20105;-74
2021/12/04 00:33:20;;;;;;;57.13;20.85;;;;;;;1.89;100.00;99543.81;5039325;28;20094;-75
2021/12/04 00:36:04;;;;;;;57.50;21.55;;;;;;;2.45;100.00;99618.81;5024246;28;20497;-73
2021/12/04 00:49:31;;;;;;;62.78;23.45;;;;;;;2.00;100.00;99527.41;4989234;28;20058;-74
2021/12/04 00:51:58;;;;;;;67.03;23.40;;;;;;;2.66;100.00;99603.41;4966785;28;20070;-73
2021/12/04 00:54:27;;;;;;;70.30;22.58;;;;;;;2.45;100.00;99596.22;4981812;28;20035;-73
2021/12/04 00:56:53;;;;;;;71.20;23.90;;;;;;;1.80;100.00;99498.44;4963154;28;20103;-74
2021/12/04 00:59:20;;;;;;;84.53;25.30;;;;;;;2.20;100.00;99586.75;4978965;28;20117;-74
2021/12/04 01:01:49;;;;;;;78.20;25.58;;;;;;;2.39;100.00;99586.22;4981330;28;20031;-75
2021/12/04 01:04:20;;;;;;;75.63;25.88;;;;;;;2.28;100.00;99592.22;4993031;28;20572;-74
2021/12/04 01:06:46;;;;;;;84.72;24.80;;;;;;;2.28;100.00;99566.16;4952355;29;20140;-75
2021/12/04 01:09:17;;;;;;;73.18;24.55;;;;;;;2.41;100.00;99601.75;4956338;29;20118;-74
2021/12/04 01:11:44;;;;;;;74.80;24.25;;;;;;;1.96;100.00;99533.81;5470625;23;20125;-77
2021/12/04 01:14:12;;;;;;;91.90;26.85;;;;;;;1.98;100.00;99524.13;5065339;28;20100;-77
2021/12/04 01:16:41;;;;;;;84.57;26.17;;;;;;;2.37;100.00;99584.69;5070259;28;20396;-78
2021/12/04 01:19:07;;;;;;;76.72;24.83;;;;;;;2.37;100.00;99554.25;5074664;28;20031;-77
2021/12/04 01:21:35;;;;;;;90.22;25.30;;;;;;;2.32;100.00;99553.75;5069107;28;20035;-77
2021/12/04 01:24:04;;;;;;;85.63;26.90;;;;;;;2.24;100.00;99532.63;5094198;28;20035;-77
2021/12/04 01:26:30;;;;;;;84.20;27.55;;;;;;;2.33;100.00;99533.75;5095524;28;20354;-77
2021/12/04 01:28:55;;;;;;;95.70;27.58;;;;;;;2.03;100.00;99517.63;5079074;28;20016;-77
2021/12/04 01:31:24;;;;;;;94.43;26.02;;;;;;;2.33;100.00;99549.38;5077809;28;20031;-77
2021/12/04 01:33:50;;;;;;;88.30;26.38;;;;;;;2.32;100.00;99555.50;5091140;28;20038;-77
2021/12/04 01:36:16;;;;;;;101.55;27.73;;;;;;;1.99;100.00;99537.00;5086658;28;20059;-78
2021/12/04 01:38:42;;;;;;;92.32;27.58;;;;;;;2.25;100.00;99527.31;5093615;28;20019;-77
2021/12/04 01:41:08;;;;;;;95.60;27.65;;;;;;;2.46;100.00;99582.25;5075160;28;20023;-76
2021/12/04 01:43:34;;;;;;;113.32;28.77;;;;;;;2.41;100.00;99562.69;5091657;28;20024;-77
2021/12/04 01:46:00;;;;;;;101.45;29.23;;;;;;;2.07;100.00;99493.03;5089782;28;20035;-76
2021/12/04 01:48:26;;;;;;;101.72;26.25;;;;;;;2.29;100.00;99552.22;5094296;28;20035;-77
2021/12/04 01:50:54;;;;;;;98.75;28.25;;;;;;;2.35;100.00;99505.81;5098908;28;20020;-78
2021/12/04 01:53:30;;;;;;;95.10;28.02;;;;;;;2.56;100.00;99584.16;5064428;28;20036;-77
2021/12/04 01:55:57;;;;;;;102.93;28.40;;;;;;;2.19;100.00;99555.59;5082583;28;20020;-77
2021/12/04 01:58:25;;;;;;;107.22;30.25;;;;;;;2.26;100.00;99541.16;5098636;28;20085;-77
2021/12/04 02:00:51;;;;;;;106.75;27.02;;;;;;;1.99;100.00;99508.34;5077884;28;20103;-76
2021/12/04 02:03:18;;;;;;;108.78;29.23;;;;;;;2.16;100.00;99554.03;5078674;28;20408;-78
2021/12/04 02:05:45;;;;;;;123.53;30.02;;;;;;;2.11;100.00;99543.09;5041554;28;20119;-77
2021/12/04 02:08:15;;;;;;;125.63;29.77;;;;;;;2.07;100.00;99498.22;5095078;28;20031;-78
2021/12/04 02:10:45;;;;;;;108.20;29.50;;;;;;;2.26;100.00;99546.38;5075951;28;20040;-77
2021/12/04 02:13:11;;;;;;;122.72;29.45;;;;;;;2.24;100.00;99548.25;5092872;28;20043;-78
2021/12/04 02:15:37;;;;;;;127.60;30.92;;;;;;;2.27;100.00;99545.41;5111609;28;20046;-77
2021/12/04 02:18:06;;;;;;;104.13;25.92;;;;;;;1.94;100.00;99510.47;5080598;28;20039;-77
2021/12/04 02:20:33;;;;;;;107.25;29.65;;;;;;;2.34;100.00;99530.19;5081450;28;20039;-76
2021/12/04 02:23:01;;;;;;;111.75;29.25;;;;;;;2.11;100.00;99519.66;5079679;28;20024;-76
2021/12/04 02:25:27;;;;;;;120.88;30.10;;;;;;;2.33;100.00;99541.56;5096068;28;20028;-77
2021/12/04 02:27:53;;;;;;;126.53;30.23;;;;;;;2.36;100.00;99534.34;5075299;28;20035;-77
2021/12/04 02:33:32;;;;;;;127.20;27.98;;;;;;;2.43;100.00;99547.75;5093833;28;20581;-77
2021/12/04 02:36:02;;;;;;;143.23;30.33;;;;;;;2.22;100.00;99534.50;5521251;22;20041;-77
2021/12/04 02:38:30;;;;;;;119.80;29.63;;;;;;;2.41;100.00;99547.06;5094042;28;20040;-76
2021/12/04 02:41:00;;;;;;;128.93;29.65;;;;;;;2.49;100.00;99542.91;5074096;28;20024;-76
2021/12/04 02:43:41;;;;;;;126.40;29.83;;;;;;;2.33;100.00;99513.72;5066600;28;20029;-76
2021/12/04 02:46:10;;;;;;;126.35;30.60;;;;;;;2.36;100.00;99536.94;5080360;28;20460;-76
2021/12/04 02:48:45;;;;;;;134.30;30.60;;;;;;;2.39;100.00;99534.13;5096937;28;20028;-77
2021/12/04 02:51:11;;;;;;;129.90;30.60;;;;;;;2.22;100.00;99518.88;5097750;28;20028;-78
2021/12/04 02:53:38;;;;;;;141.10;30.73;;;;;;;2.48;100.00;99528.25;5098131;28;20395;-76
2021/12/04 02:56:05;;;;;;;126.50;30.45;;;;;;;2.34;100.00;99514.56;5103888;28;20035;-77
2021/12/04 02:58:33;;;;;;;142.07;29.55;;;;;;;2.52;100.00;99521.00;5081487;28;20023;-75
2021/12/04 03:01:03;;;;;;;132.93;30.05;;;;;;;2.43;100.00;99525.16;5101186;28;20024;-77
2021/12/04 03:03:31;;;;;;;132.48;32.03;;;;;;;2.24;100.00;99483.16;5071087;28;20355;-78
2021/12/04 03:06:00;;;;;;;127.22;28.27;;;;;;;2.46;100.00;99511.88;5085922;28;20047;-78
2021/12/04 03:08:25;;;;;;;123.03;29.08;;;;;;;2.76;100.00;99535.78;5071011;28;20155;-77
2021/12/04 03:10:51;;;;;;;145.68;32.30;;;;;;;2.51;100.00;99496.72;5082113;28;20062;-77
2021/12/04 03:13:20;;;;;;;134.98;30.50;;;;;;;2.44;100.00;99512.94;5104248;28;20456;-76
2021/12/04 03:15:57;;;;;;;132.95;31.50;;;;;;;2.61;100.00;99529.91;5075607;28;20021;-76
2021/12/04 03:18:27;;;;;;;148.88;30.05;;;;;;;2.38;100.00;99518.59;5075803;28;20020;-76
2021/12/04 03:20:57;;;;;;;131.88;30.88;;;;;;;2.57;100.00;99523.31;5079303;28;20086;-76
2021/12/04 03:23:32;;;;;;;128.88;30.10;;;;;;;2.42;100.00;99488.78;5096878;28;20416;-76
2021/12/04 03:25:59;;;;;;;;;;;;;;;2.61;100.00;99512.53;5082647;28;20106;-75
2021/12/04 03:28:28;;;;;;;150.70;30.77;;;;;;;2.46;100.00;99470.19;5081762;28;19913;-76
2021/12/04 03:31:41;;;;;;;150.05;30.17;;;;;;;2.51;100.00;99498.50;5073684;28;20031;-77
2021/12/04 03:42:13;;;;;;;132.90;29.80;;;;;;;2.21;100.00;99465.97;5103326;28;20429;-76
2021/12/04 03:44:40;;;;;;;161.75;30.73;;;;;;;2.37;100.00;99462.25;5103625;28;20016;-76
2021/12/04 03:47:08;;;;;;;148.73;28.13;;;;;;;2.58;100.00;99480.66;5088500;28;20020;-75
2021/12/04 03:49:34;;;;;;;139.73;29.63;;;;;;;2.70;100.00;99492.75;5090257;28;20020;-75
2021/12/04 03:52:00;;;;;;;141.32;29.52;;;;;;;2.57;100.00;99450.34;5085888;28;20020;-76
2021/12/04 03:54:35;;;;;;;131.00;28.85;;;;;;;2.72;100.00;99467.41;5076759;28;20028;-75
2021/12/04 03:57:04;;;;;;;127.38;29.17;;;;;;;2.46;100.00;99425.91;5066659;28;20025;-75
2021/12/04 03:59:47;;;;;;;158.05;30.38;;;;;;;2.53;100.00;99461.94;5058857;28;20063;-76
2021/12/04 04:02:16;;;;;;;123.80;28.73;;;;;;;2.43;100.00;99465.22;5059550;28;20119;-76
2021/12/04 04:04:42;;;;;;;132.13;29.23;;;;;;;2.50;100.00;99461.22;5076106;28;20032;-75
2021/12/04 04:07:08;;;;;;;143.43;29.23;;;;;;;2.50;100.00;99456.00;5067386;28;20343;-75
2021/12/04 04:09:35;;;;;;;150.43;28.38;;;;;;;2.86;100.00;99476.78;5057501;28;20020;-75
2021/12/04 04:12:03;;;;;;;141.77;30.40;;;;;;;2.35;100.00;99430.25;5059075;28;20012;-75
2021/12/04 04:14:29;;;;;;;143.88;29.42;;;;;;;2.57;100.00;99442.50;5076315;28;20024;-74
2021/12/04 04:17:03;;;;;;;167.70;31.80;;;;;;;2.74;100.00;99462.91;5094156;28;20012;-75
2021/12/04 04:19:29;;;;;;;141.38;29.63;;;;;;;2.55;100.00;99439.19;5059774;28;20031;-75
2021/12/04 04:21:56;;;;;;;140.48;28.98;;;;;;;2.66;100.00;99462.66;5076376;28;20020;-75
2021/12/04 04:24:27;;;;;;;134.25;28.00;;;;;;;2.42;100.00;99428.84;5076052;28;20034;-75
2021/12/04 04:26:53;;;;;;;128.18;29.40;;;;;;;2.88;100.00;99475.75;5043139;28;20035;-74
2021/12/04 04:29:22;;;;;;;142.70;29.83;;;;;;;2.90;100.00;99462.56;5059932;28;20077;-75
2021/12/04 04:31:49;;;;;;;135.20;27.65;;;;;;;2.71;100.00;99444.91;5075888;28;20355;-76
2021/12/04 04:34:24;;;;;;;135.10;28.77;;;;;;;2.67;100.00;99453.88;5075894;28;20037;-74
2021/12/04 04:59:02;;;;;;;137.00;27.57;;;;;;;2.76;100.00;99434.94;5076948;28;20111;-76
2021/12/04 05:12:29;;;;;;;121.25;25.75;;;;;;;2.58;100.00;99403.28;5093301;28;20115;-75
2021/12/04 05:14:58;;;;;;;121.50;25.63;;;;;;;2.63;100.00;99442.84;5093382;28;20016;-76
2021/12/04 05:20:18;;;;;;;137.93;26.38;;;;;;;2.62;100.00;99429.97;5073751;28;20066;-75
2021/12/04 05:25:36;;;;;;;118.72;24.88;;;;;;;2.52;100.00;99398.53;5014672;28;20033;-73
2021/12/04 05:28:06;;;;;;;129.77;25.85;;;;;;;2.40;100.00;99386.44;5014749;28;20164;-76
2021/12/04 05:30:34;;;;;;;113.55;25.48;;;;;;;2.43;100.00;99366.22;5014217;28;20042;-76
2021/12/04 05:33:01;;;;;;;117.60;25.38;;;;;;;2.45;100.00;99376.50;5031044;28;20033;-75
2021/12/04 05:35:28;;;;;;;134.07;25.80;;;;;;;2.21;100.00;99380.03;5013998;28;20048;-75
2021/12/04 05:37:54;;;;;;;125.85;26.33;;;;;;;2.48;100.00;99418.81;5019066;28;20105;-76
2021/12/04 05:40:23;;;;;;;109.63;23.85;;;;;;;2.86;100.00;99409.84;5038732;28;20076;-76
2021/12/04 05:42:50;;;;;;;109.88;24.42;;;;;;;2.79;100.00;99376.53;5019561;28;20124;-76
2021/12/04 05:45:22;;;;;;;110.30;24.65;;;;;;;2.81;100.00;99401.53;5000549;28;20029;-75
2021/12/04 05:50:39;;;;;;;93.43;24.00;;;;;;;3.11;100.00;99393.13;5031656;28;20057;-76
2021/12/04 05:56:09;;;;;;;117.80;24.10;;;;;;;2.63;100.00;99369.06;4996276;28;20144;-76
2021/12/04 05:58:39;;;;;;;99.53;22.58;;;;;;;2.51;100.00;99373.44;5004547;28;20045;-75
2021/12/04 06:01:06;;;;;;;105.35;23.00;;;;;;;2.33;100.00;99362.63;5003887;28;20113;-75
2021/12/04 06:03:32;;;;;;;128.70;24.50;;;;;;;2.18;100.00;99355.97;5057056;28;20115;-75
2021/12/04 06:05:58;;;;;;;102.80;23.65;;;;;;;2.26;100.00;99361.44;5069392;28;20045;-75
2021/12/04 06:08:26;;;;;;;126.47;22.77;;;;;;;2.37;100.00;99402.31;5052188;28;20041;-75
2021/12/04 06:10:52;;;;;;;114.22;24.30;;;;;;;2.12;100.00;99354.66;5048085;28;20033;-75
2021/12/04 06:13:18;;;;;;;142.70;25.25;;;;;;;2.19;100.00;99378.47;5047042;28;20040;-75
2021/12/04 06:15:44;;;;;;;128.15;24.88;;;;;;;2.49;100.00;99404.81;5036654;28;20033;-76
2021/12/04 06:18:10;;;;;;;113.82;23.38;;;;;;;2.52;100.00;99385.50;5050702;28;20508;-76
2021/12/04 06:23:26;;;;;;;;;;;;;;;2.78;100.00;99406.97;5050004;28;20037;-77
2021/12/04 06:28:27;;;;;;;94.38;23.08;;;;;;;1.53;100.00;99212.44;5171489;22;20059;-72
2021/12/04 06:30:54;;;;;;;100.72;22.08;;;;;;;2.37;100.00;99338.00;5034109;28;20112;-72
2021/12/04 06:33:24;;;;;;;107.25;25.45;;;;;;;2.15;100.00;99323.19;5055481;28;20485;-75
2021/12/04 06:35:56;;;;;;;105.45;23.83;;;;;;;2.48;100.00;99348.44;5027042;28;20036;-73
2021/12/04 06:38:21;;;;;;;107.00;25.50;;;;;;;2.47;100.00;99338.13;5515206;22;20084;-72
2021/12/04 06:40:48;;;;;;;101.20;22.02;;;;;;;2.66;100.00;99369.66;5056451;28;20056;-72
2021/12/04 06:43:15;;;;;;;99.90;22.77;;;;;;;2.84;100.00;99395.25;5072561;28;20078;-73
2021/12/04 06:45:50;;;;;;;107.53;24.08;;;;;;;2.45;100.00;99355.66;5075643;28;20107;-72
2021/12/04 06:48:19;;;;;;;109.78;22.40;;;;;;;2.35;100.00;99331.28;5057220;28;20031;-72
2021/12/04 06:50:49;;;;;;;125.60;23.58;;;;;;;2.54;100.00;99344.53;5071452;28;20048;-72
2021/12/04 06:53:29;;;;;;;98.93;23.40;;;;;;;2.73;100.00;99328.31;5037509;28;20018;-72
2021/12/04 06:55:58;;;;;;;93.88;22.65;;;;;;;2.77;100.00;99371.44;5072652;28;20570;-73
2021/12/04 06:58:25;;;;;;;101.05;21.33;;;;;;;2.54;100.00;99369.75;5075436;28;20111;-72
2021/12/04 07:00:52;;;;;;;89.05;22.80;;;;;;;2.63;100.00;99348.22;5063340;28;20032;-72
2021/12/04 07:03:18;;;;;;;116.63;24.30;;;;;;;2.57;100.00;99362.56;5074273;28;20111;-73
2021/12/04 07:08:24;;;;;;;117.80;22.17;;;;;;;2.92;100.00;99374.63;5191101;22;20052;-78
2021/12/04 07:10:51;;;;;;;94.90;22.80;;;;;;;2.33;100.00;99268.84;5078514;28;20028;-75
2021/12/04 07:13:17;;;;;;;92.72;21.83;;;;;;;2.18;100.00;99251.81;5098473;28;20373;-74
2021/12/04 07:15:45;;;;;;;86.55;21.70;;;;;;;2.86;100.00;99334.22;5091611;28;20046;-74
2021/12/04 07:18:11;;;;;;;92.90;20.85;;;;;;;2.66;100.00;99320.13;5096298;28;20519;-73
2021/12/04 07:20:37;;;;;;;88.25;23.20;;;;;;;2.42;100.00;99272.53;5099378;28;20027;-73
2021/12/04 07:23:03;;;;;;;92.25;23.27;;;;;;;2.65;100.00;99296.78;5068955;28;20024;-74
2021/12/04 07:25:29;;;;;;;90.88;22.50;;;;;;;2.90;100.00;99342.63;5093861;28;20028;-74
2021/12/04 07:27:54;;;;;;;95.15;22.77;;;;;;;2.42;100.00;99242.09;5098602;28;20023;-75
2021/12/04 07:30:22;;;;;;;81.15;20.73;;;;;;;3.04;100.00;99305.03;5099782;28;20025;-73
2021/12/04 07:32:49;;;;;;;80.78;21.70;;;;;;;2.94;100.00;99276.25;5099119;28;20477;-76
2021/12/04 07:35:15;;;;;;;89.80;22.45;;;;;;;3.48;100.00;99358.06;5079203;28;20036;-75
2021/12/04 07:37:42;;;;;;;95.05;22.75;;;;;;;2.86;100.00;99307.31;5096206;28;20024;-74
2021/12/04 07:40:09;;;;;;;107.38;23.92;;;;;;;3.00;100.00;99368.81;5088982;28;20131;-76
2021/12/04 07:42:39;;;;;;;94.93;24.63;;;;;;;3.14;100.00;99373.78;5075732;28;20017;-76
2021/12/04 07:45:07;;;;;;;98.75;23.70;;;;;;;2.87;100.00;99359.34;5072897;28;20474;-76
2021/12/04 07:47:33;;;;;;;123.60;24.80;;;;;;;2.50;100.00;99330.09;5061815;28;20466;-75
2021/12/04 07:50:01;;;;;;;100.80;22.33;;;;;;;1.69;100.00;99159.25;5098078;28;20028;-75
2021/12/04 07:52:27;;;;;;;90.38;23.17;;;;;;;1.85;100.00;99181.38;5054158;28;20183;-75
2021/12/04 07:54:53;;;;;;;104.15;23.80;;;;;;;2.46;100.00;99326.06;5093140;28;20016;-75
2021/12/04 07:57:20;;;;;;;98.00;22.85;;;;;;;2.54;100.00;99325.47;5078972;28;20099;-75
2021/12/04 07:59:46;;;;;;;98.28;22.85;;;;;;;2.31;100.00;99307.22;5078451;28;20058;-76
2021/12/04 08:02:12;;;;;;;98.60;22.02;;;;;;;1.87;100.00;99215.94;5095323;28;20024;-76
2021/12/04 08:04:38;;;;;;;96.60;22.15;;;;;;;2.90;100.00;99329.59;5092458;28;20100;-75
2021/12/04 08:07:04;;;;;;;93.95;21.58;;;;;;;2.85;100.00;99316.09;5080449;28;20084;-76
2021/12/04 08:09:29;;;;;;;91.28;23.00;;;;;;;3.22;100.00;99313.16;5077903;28;20044;-75
2021/12/04 08:11:56;;;;;;;91.82;23.02;;;;;;;3.45;100.00;99321.75;5084756;28;20024;-76
2021/12/04 08:14:21;;;;;;;111.85;22.30;;;;;;;3.31;100.00;99317.63;5067442;28;20025;-74
2021/12/04 08:16:47;;;;;;;108.00;24.15;;;;;;;2.97;100.00;99322.94;5078071;28;20115;-74
2021/12/04 08:19:15;;;;;;;102.88;23.70;;;;;;;2.77;100.00;99251.53;5072299;28;20049;-76
2021/12/04 08:21:41;;;;;;;103.25;24.80;;;;;;;2.90;100.00;99291.31;5075762;28;20031;-76
2021/12/04 08:24:07;;;;;;;95.38;24.63;;;;;;;3.34;100.00;99313.00;5076829;28;20032;-76
2021/12/04 08:26:38;;;;;;;105.72;24.70;;;;;;;3.17;100.00;99294.44;5079128;28;20326;-76
2021/12/04 08:29:05;;;;;;;90.15;23.90;;;;;;;2.38;100.00;99143.47;5092199;28;20035;-76
2021/12/04 08:31:31;;;;;;;87.82;24.65;;;;;;;3.11;100.00;99273.13;5076106;28;20027;-75
2021/12/04 08:33:57;;;;;;;103.32;23.15;;;;;;;2.83;100.00;99258.03;5089244;28;20024;-78
2021/12/04 08:36:27;;;;;;;93.75;23.95;;;;;;;3.14;100.00;99329.44;5084611;28;20039;-77
2021/12/04 08:38:52;;;;;;;98.28;23.88;;;;;;;2.50;100.00;99199.81;5094184;28;20036;-73
2021/12/04 08:41:19;;;;;;;88.30;24.23;;;;;;;2.53;100.00;99220.41;5103940;28;20374;-74
2021/12/04 08:43:45;;;;;;;95.90;25.80;;;;;;;3.33;100.00;99282.66;5069989;28;20016;-74
2021/12/04 08:46:13;;;;;;;96.53;26.08;;;;;;;3.42;100.00;99315.00;5094374;28;20358;-75
2021/12/04 08:48:39;;;;;;;89.13;25.75;;;;;;;2.90;100.00;99226.13;5077322;28;20044;-75
2021/12/04 08:51:05;;;;;;;92.38;25.73;;;;;;;3.21;100.00;99260.16;5073206;28;20032;-73
2021/12/04 08:53:31;;;;;;;90.18;26.80;;;;;;;3.42;100.00;99248.94;5089630;28;20032;-73
2021/12/04 08:55:57;;;;;;;84.78;25.63;;;;;;;3.03;100.00;99223.38;5094783;28;20024;-74
2021/12/04 08:58:26;;;;;;;159.10;53.25;;;;;;;3.67;100.00;99316.44;5090118;28;20066;-76
2021/12/04 09:00:59;;;;;;;125.20;43.88;;;;;;;3.96;100.00;99302.75;5074239;28;20020;-76
2021/12/04 09:03:45;;;;;;;87.82;26.85;;;;;;;3.28;100.00;99206.53;5079678;28;20063;-76
2021/12/04 09:06:12;;;;;;;81.45;23.73;;;;;;;2.89;100.00;99252.34;5054910;28;20025;-74
2021/12/04 09:08:38;;;;;;;83.78;25.65;;;;;;;3.29;100.00;99289.09;5089449;28;20032;-76
2021/12/04 09:11:12;;;;;;;85.65;24.83;;;;;;;2.42;100.00;99160.50;5099557;28;20035;-77
2021/12/04 09:13:42;;;;;;;87.43;25.33;;;;;;;3.35;100.00;99290.34;5062694;28;20226;-76
2021/12/04 09:16:08;;;;;;;138.00;49.53;;;;;;;3.25;100.00;99279.84;5086606;28;20035;-75
2021/12/04 09:18:35;;;;;;;77.38;24.60;;;;;;;3.41;100.00;99274.22;5073632;28;20043;-73
2021/12/04 09:21:04;;;;;;;72.18;22.50;;;;;;;2.66;100.00;99192.44;5080290;28;20032;-73
2021/12/04 09:23:34;;;;;;;76.60;21.92;;;;;;;2.43;100.00;99168.22;5080008;28;20393;-76
2021/12/04 09:26:03;;;;;;;65.00;22.55;;;;;;;2.82;100.00;99225.91;5101650;28;20032;-76
2021/12/04 09:28:45;;;;;;;76.90;22.77;;;;;;;3.05;100.00;99281.44;5053831;28;20017;-73
2021/12/04 10:00:49;;;;;;;72.25;21.60;;;;;;;2.66;100.00;99170.75;5094758;28;20070;-76
2021/12/04 10:03:39;;;;;;;72.75;21.17;;;;;;;2.96;100.00;99258.72;5060998;28;20364;-75
2021/12/04 10:06:32;;;;;;;77.40;24.38;;;;;;;3.43;100.00;99264.47;5106911;28;20027;-77
2021/12/04 10:20:14;;;;;;;82.65;24.67;;;;;;;3.12;100.00;99173.06;5085817;28;20086;-74
2021/12/04 10:23:21;;;;;;;70.38;22.33;;;;;;;2.81;100.00;99145.22;5081014;28;20050;-75
2021/12/04 10:33:54;;;;;;;63.05;20.35;;;;;;;3.49;100.00;99237.84;5079891;28;19919;-75
2021/12/04 10:36:29;;;;;;;65.82;21.02;;;;;;;3.24;100.00;99176.44;5107762;28;20024;-76
2021/12/04 10:38:55;;;;;;;62.30;21.30;;;;;;;3.53;100.00;99168.78;5102228;28;20082;-76
2021/12/04 10:41:39;;;;;;;73.43;25.17;;;;;;;2.89;100.00;99120.19;5024811;28;20037;-79
2021/12/04 10:44:14;;;;;;;56.05;19.40;;;;;;;3.39;100.00;99194.41;5046379;28;20044;-79
2021/12/04 10:47:05;;;;;;;48.75;17.48;;;;;;;2.40;100.00;99039.97;5061333;28;20036;-78
2021/12/04 10:49:54;;;;;;;56.63;20.55;;;;;;;3.66;100.00;99199.09;5055280;28;20060;-79
2021/12/04 10:55:43;;;;;;;50.78;17.38;;;;;;;3.86;100.00;99194.78;5028964;28;20037;-78
2021/12/04 11:03:51;;;;;;;40.97;15.55;;;;;;;2.62;100.00;99114.63;5062769;28;20052;-79
2021/12/04 11:07:03;;;;;;;45.53;16.63;;;;;;;3.04;100.00;99164.19;5004930;28;20068;-78
2021/12/04 11:44:10;;;;;;;61.70;19.00;;;;;;;2.48;100.00;99102.72;4985875;28;20026;-76
2021/12/04 11:46:56;;;;;;;50.72;18.23;;;;;;;1.39;100.00;98963.81;5049223;22;20105;-76
2021/12/04 11:49:26;;;;;;;59.97;18.40;;;;;;;2.14;100.00;99049.91;5017235;28;20121;-76
2021/12/04 11:52:02;;;;;;;55.10;19.05;;;;;;;2.07;100.00;99052.16;5028494;28;20020;-76
2021/12/04 11:54:31;;;;;;;54.58;19.08;;;;;;;2.90;100.00;99145.28;4986824;28;20472;-75
2021/12/04 11:56:58;;;;;;;59.17;20.40;;;;;;;2.97;100.00;99132.59;5004829;28;20546;-77
2021/12/04 11:59:31;;;;;;;54.97;17.98;;;;;;;2.37;100.00;99066.28;5034186;28;20029;-80
2021/12/04 12:02:00;;;;;;;55.85;17.77;;;;;;;1.57;100.00;98953.72;5002266;28;20115;-76
2021/12/04 12:04:41;;;;;;;52.25;17.27;;;;;;;2.74;100.00;99147.50;5016966;28;20375;-75
2021/12/04 12:07:29;;;;;;;51.47;17.13;;;;;;;2.99;100.00;99122.84;5008965;28;20021;-73
2021/12/04 12:10:12;;;;;;;54.50;18.40;;;;;;;2.74;100.00;99095.38;5032169;28;20053;-74
2021/12/04 12:12:43;;;;;;;51.80;17.55;;;;;;;2.61;100.00;99084.28;5032600;28;20379;-75
2021/12/04 12:15:27;;;;;;;57.00;18.77;;;;;;;2.55;100.00;99082.19;5029311;28;20040;-77
2021/12/04 12:17:54;;;;;;;59.17;18.70;;;;;;;3.18;100.00;99123.94;5016969;28;20522;-76
2021/12/04 12:20:50;;;;;;;54.80;18.85;;;;;;;3.06;100.00;99116.19;4999620;28;20041;-76
2021/12/04 12:23:20;;;;;;;61.35;19.80;;;;;;;3.04;100.00;99107.66;4986636;28;20033;-76
2021/12/04 12:26:12;;;;;;;66.57;19.08;;;;;;;2.40;100.00;99068.63;5020662;28;20036;-76
2021/12/04 12:37:20;;;;;;;60.97;20.08;;;;;;;3.16;100.00;99084.97;5017441;28;20041;-76
2021/12/04 12:39:58;;;;;;;67.60;19.90;;;;;;;3.26;100.00;99095.44;4989210;28;20125;-75
2021/12/04 12:42:37;;;;;;;99.93;33.33;;;;;;;2.21;100.00;98997.19;4987451;28;20115;-77
2021/12/04 12:45:34;;;;;;;85.78;20.85;;;;;;;2.66;100.00;99108.22;4993470;28;20033;-77
2021/12/04 12:48:08;;;;;;;71.25;20.90;;;;;;;2.56;100.00;99048.19;5004474;28;20046;-79
2021/12/04 12:50:38;;;;;;;71.55;21.77;;;;;;;2.69;100.00;99029.75;5009923;28;20065;-76
2021/12/04 12:53:18;;;;;;;72.22;20.90;;;;;;;2.56;100.00;99029.94;5001802;28;20120;-75
2021/12/04 12:55:46;;;;;;;70.20;21.10;;;;;;;2.98;100.00;99081.28;5000784;28;20033;-74
2021/12/04 12:58:20;;;;;;;71.22;20.45;;;;;;;2.78;100.00;99082.91;5030663;28;20077;-75
2021/12/04 13:12:03;;;;;;;78.95;21.02;;;;;;;2.66;100.00;99017.81;5019015;28;20021;-75
2021/12/04 13:14:41;;;;;;;83.00;21.73;;;;;;;3.04;100.00;99099.00;5007071;28;20376;-75
2021/12/04 13:17:16;;;;;;;72.53;21.00;;;;;;;2.95;100.00;99097.97;4976039;28;20022;-75
2021/12/04 13:19:47;;;;;;;81.80;23.60;;;;;;;2.69;100.00;99095.75;5032059;28;20029;-74
2021/12/04 13:22:19;;;;;;;87.03;22.20;;;;;;;2.86;100.00;99117.84;5008610;28;20037;-75
2021/12/04 13:24:48;;;;;;;89.85;22.92;;;;;;;2.59;100.00;99008.00;5012025;28;20025;-74
2021/12/04 13:29:50;;;;;;;93.32;23.70;;;;;;;3.11;100.00;99080.13;5036245;28;20036;-74
2021/12/04 13:32:26;;;;;;;86.28;23.55;;;;;;;3.35;100.00;99087.66;5000436;28;20057;-75
2021/12/04 13:34:52;;;;;;;89.35;22.42;;;;;;;3.16;100.00;99086.72;5003017;28;20029;-74
2021/12/04 13:37:25;;;;;;;91.03;23.38;;;;;;;3.27;100.00;99087.50;5029334;28;20022;-74
2021/12/04 13:39:56;;;;;;;80.63;21.23;;;;;;;2.57;100.00;98973.47;5013154;28;20085;-75
2021/12/04 13:42:23;;;;;;;86.05;22.67;;;;;;;2.23;100.00;98930.19;4991372;28;20018;-75
2021/12/04 13:44:49;;;;;;;78.75;21.90;;;;;;;2.62;100.00;98976.50;5005155;28;20046;-74
2021/12/04 13:47:15;;;;;;;72.43;20.88;;;;;;;2.90;100.00;99042.78;5033781;28;20518;-75
2021/12/04 13:50:47;;;;;;;80.70;22.08;;;;;;;3.24;100.00;99089.53;5020919;28;20052;-75
2021/12/04 13:52:42;;;;;;;68.88;19.67;;;;;;;3.41;100.00;99077.69;4986884;28;20046;-75
2021/12/04 13:55:11;;;;;;;69.47;20.33;;;;;;;3.03;100.00;99024.34;4970853;28;20352;-75
2021/12/04 13:57:41;;;;;;;75.63;20.75;;;;;;;3.02;100.00;99041.78;4982717;28;20120;-74
2021/12/04 14:00:10;;;;;;;71.07;19.95;;;;;;;3.58;100.00;99079.66;4991178;28;20190;-75
2021/12/04 14:02:36;;;;;;;62.13;19.67;;;;;;;3.72;100.00;99068.91;5016396;28;20102;-75
2021/12/04 14:05:05;;;;;;;65.18;18.20;;;;;;;3.65;100.00;99082.59;4998452;28;20046;-74
2021/12/04 14:07:34;;;;;;;62.33;18.02;;;;;;;3.29;100.00;99059.50;4982390;28;20037;-74
2021/12/04 14:10:15;;;;;;;67.03;19.65;;;;;;;3.59;100.00;99083.94;4999531;28;20492;-76
2021/12/04 14:12:41;;;;;;;37.42;12.70;;;;;;;3.16;100.00;99060.63;4982450;28;20026;-74
2021/12/04 14:15:11;;;;;;;37.58;12.52;;;;;;;2.56;100.00;98982.22;5012879;28;20037;-74
2021/12/04 14:17:37;;;;;;;38.45;13.25;;;;;;;3.46;100.00;99089.38;4989980;28;20329;-75
2021/12/04 14:20:05;;;;;;;30.90;9.85;;;;;;;3.44;100.00;99078.25;5019132;28;20181;-75
2021/12/04 14:22:31;;;;;;;35.63;11.65;;;;;;;3.17;100.00;99013.56;4985145;28;20030;-75
2021/12/04 14:25:02;;;;;;;34.63;11.07;;;;;;;2.75;100.00;98945.00;5000349;28;20037;-76
2021/12/04 14:27:32;;;;;;;30.38;11.05;;;;;;;3.67;100.00;99078.88;4984214;28;20038;-74
2021/12/04 14:30:05;;;;;;;30.08;11.48;;;;;;;3.24;100.00;99021.72;5019516;28;20021;-75
2021/12/04 14:32:33;;;;;;;35.88;13.65;;;;;;;3.44;100.00;99043.50;5008051;28;20049;-74
2021/12/04 14:35:02;;;;;;;33.65;11.50;;;;;;;3.62;100.00;99023.63;5002232;28;20484;-75
2021/12/04 14:37:33;;;;;;;28.00;10.07;;;;;;;3.89;100.00;99090.91;5003199;28;20022;-74